Time;durP1;ratioP1;P1;durP2;ratioP2;P2;SDS_P1;SDS_P2;PMS_P1;PMS_P2;Temp;Humidity;BMP_temperature;BMP_pressure;BME280_temperature;BME280_humidity;BME280_pressure;Samples;Min_cycle;Max_cycle;Signal;HPM_P1;HPM_P2
2023/07/11 02:09:02;;;;;;;6.10;2.30;;;;;;;16.56;78.06;98834.70;79903;1304;3012882;-62
2023/07/11 02:11:31;;;;;;;;;;;;;;;16.28;78.96;98836.23;78900;1302;3011728;-62
2023/07/11 02:15:13;;;;;;;4.10;2.20;;;;;;;16.18;79.15;98836.30;80301;1301;3013538;-61
2023/07/11 02:17:40;;;;;;;4.40;2.60;;;;;;;16.68;78.60;98839.56;79196;1302;3018716;-65
2023/07/11 02:20:08;;;;;;;7.20;3.40;;;;;;;17.06;76.31;98834.01;79229;1301;3013058;-63
2023/07/11 02:22:38;;;;;;;5.70;3.40;;;;;;;16.98;76.08;98830.98;78061;1299;3053245;-63
2023/07/11 02:25:05;;;;;;;3.70;2.50;;;;;;;16.76;76.82;98831.35;79173;1301;3018943;-63
2023/07/11 02:27:32;;;;;;;4.90;3.50;;;;;;;16.63;77.17;98831.52;77401;1301;3011629;-64
2023/07/11 02:30:00;;;;;;;6.70;4.20;;;;;;;16.50;78.21;98830.16;78123;1295;3029412;-61
2023/07/11 02:32:26;;;;;;;5.80;3.20;;;;;;;16.37;78.61;98838.59;79234;1295;3013448;-62
2023/07/11 02:34:53;;;;;;;13.10;4.50;;;;;;;16.80;77.51;98834.70;79251;1301;3011622;-62
2023/07/11 02:37:21;;;;;;;10.10;4.50;;;;;;;17.06;76.07;98827.81;78027;1301;3028246;-62
2023/07/11 02:39:47;;;;;;;6.60;4.30;;;;;;;17.04;75.81;98835.73;79257;1296;3020689;-64
2023/07/11 02:42:14;;;;;;;13.70;5.30;;;;;;;16.78;76.78;98838.25;79543;1301;3011651;-65
2023/07/11 02:44:42;;;;;;;6.20;4.30;;;;;;;16.55;77.86;98835.29;78170;1298;3027803;-64
2023/07/11 02:47:11;;;;;;;7.30;4.50;;;;;;;16.33;78.82;98841.39;79455;1299;3013829;-63
2023/07/11 02:49:38;;;;;;;6.30;3.30;;;;;;;16.24;79.57;98849.21;79453;1295;3011774;-61
2023/07/11 02:52:09;;;;;;;8.00;4.40;;;;;;;16.55;78.71;98840.66;78199;1296;3052559;-64
2023/07/11 02:54:37;;;;;;;8.50;4.20;;;;;;;16.77;77.69;98842.92;79404;1298;3011574;-62
2023/07/11 02:57:06;;;;;;;8.70;4.60;;;;;;;16.74;77.45;98849.36;79588;1296;3011450;-64
2023/07/11 02:59:34;;;;;;;7.30;4.00;;;;;;;16.61;77.62;98844.82;78187;1295;3050517;-62
2023/07/11 03:02:00;;;;;;;6.50;3.00;;;;;;;16.29;79.48;98854.69;79398;1295;3014690;-61
2023/07/11 03:04:27;;;;;;;5.10;2.50;;;;;;;16.19;80.14;98854.18;79342;1296;3011611;-62
2023/07/11 03:06:56;;;;;;;5.50;2.80;;;;;;;16.68;78.36;98853.19;78261;1298;3028703;-62
2023/07/11 03:09:23;;;;;;;7.30;3.20;;;;;;;16.92;77.12;98852.84;79432;1295;3013275;-62
2023/07/11 03:11:50;;;;;;;4.30;2.90;;;;;;;16.89;76.99;98853.06;79407;1295;3012088;-63
2023/07/11 03:14:19;;;;;;;3.40;2.90;;;;;;;16.64;77.74;98852.45;78254;1298;3048240;-63
2023/07/11 03:16:50;;;;;;;6.30;4.30;;;;;;;16.48;78.51;98848.23;79563;1295;3013600;-63
2023/07/11 03:19:19;;;;;;;7.60;4.00;;;;;;;16.33;79.39;98851.22;78251;1298;3052741;-63
2023/07/11 03:21:45;;;;;;;5.90;3.50;;;;;;;16.26;79.99;98847.05;79598;1297;3013595;-61
2023/07/11 03:24:12;;;;;;;15.50;3.90;;;;;;;16.71;78.74;98843.81;79488;1296;3011635;-61
2023/07/11 03:26:40;;;;;;;16.80;8.00;;;;;;;17.01;77.05;98840.27;78284;1298;3056914;-63
2023/07/11 03:29:06;;;;;;;23.70;9.40;;;;;;;17.05;76.56;98838.51;79553;1295;3012945;-65
2023/07/11 03:31:33;;;;;;;13.60;7.70;;;;;;;16.91;77.24;98834.17;79388;1299;3013442;-62
2023/07/11 03:34:01;;;;;;;14.20;8.20;;;;;;;16.76;77.98;98830.51;78299;1298;3026572;-62
2023/07/11 03:36:29;;;;;;;17.50;9.60;;;;;;;16.68;77.71;98831.94;79446;1298;3013301;-63
2023/07/11 03:38:55;;;;;;;14.50;7.60;;;;;;;16.55;78.44;98836.33;79490;1295;3013678;-63
2023/07/11 03:41:23;;;;;;;19.70;9.10;;;;;;;16.96;77.70;98838.88;78221;1298;3056004;-63
2023/07/11 03:43:50;;;;;;;15.20;9.20;;;;;;;17.20;76.50;98833.88;79505;1296;3020604;-63
2023/07/11 03:46:16;;;;;;;14.10;8.40;;;;;;;17.28;76.06;98828.42;79401;1299;3011676;-62
2023/07/11 03:48:44;;;;;;;14.10;9.10;;;;;;;17.12;76.41;98835.14;78384;1298;3026704;-64
2023/07/11 03:51:11;;;;;;;12.30;7.10;;;;;;;16.94;76.76;98841.70;79508;1298;3020580;-63
2023/07/11 03:53:38;;;;;;;12.10;7.40;;;;;;;16.84;77.29;98832.39;79440;1298;3013035;-63
2023/07/11 03:56:07;;;;;;;11.50;6.50;;;;;;;16.72;78.45;98835.80;78163;1298;3028522;-61
2023/07/11 03:58:33;;;;;;;15.90;9.40;;;;;;;17.19;76.89;98833.38;79401;1295;3013678;-63
2023/07/11 04:01:00;;;;;;;18.90;10.80;;;;;;;17.63;75.37;98829.27;79432;1300;3011516;-63
2023/07/11 04:03:28;;;;;;;19.70;10.90;;;;;;;17.55;75.12;98827.22;78275;1300;3052583;-65
2023/07/11 04:05:57;;;;;;;19.00;9.40;;;;;;;17.55;75.00;98827.73;79857;1295;3013702;-67
2023/07/11 04:08:27;;;;;;;14.00;9.50;;;;;;;17.43;75.26;98832.63;79102;1296;3011754;-68
2023/07/11 04:10:55;;;;;;;18.30;10.60;;;;;;;17.24;75.61;98834.55;79595;1298;3018743;-67
2023/07/11 04:13:22;;;;;;;14.40;7.80;;;;;;;17.10;75.98;98836.41;79847;1294;3012585;-66
2023/07/11 04:15:50;;;;;;;14.80;5.10;;;;;;;16.92;77.34;98841.15;78401;1295;3053744;-65
2023/07/11 04:18:17;;;;;;;11.00;5.50;;;;;;;17.35;76.33;98838.77;79712;1298;3013115;-69
2023/07/11 04:20:45;;;;;;;6.50;4.30;;;;;;;17.73;74.71;98839.41;79880;1295;3012092;-65
2023/07/11 04:23:14;;;;;;;11.70;5.70;;;;;;;17.83;74.10;98834.71;78287;1301;3068756;-67
2023/07/11 04:25:41;;;;;;;10.60;6.60;;;;;;;17.67;74.00;98839.45;79397;1295;3013114;-68
2023/07/11 04:28:07;;;;;;;18.60;10.20;;;;;;;17.62;74.47;98841.25;79458;1295;3013686;-66
2023/07/11 04:30:37;;;;;;;14.00;8.50;;;;;;;17.54;74.97;98841.83;78233;1295;3052958;-67
2023/07/11 04:33:03;;;;;;;15.50;8.80;;;;;;;17.37;75.16;98835.90;79605;1295;3011553;-67
2023/07/11 04:35:30;;;;;;;24.40;10.60;;;;;;;17.33;75.63;98837.55;79676;1298;3012376;-69
2023/07/11 04:37:58;;;;;;;17.50;10.00;;;;;;;17.74;74.13;98845.64;78327;1295;3068272;-70
2023/07/11 04:40:25;;;;;;;17.10;9.10;;;;;;;18.18;72.44;98846.48;79503;1295;3012894;-68
2023/07/11 04:42:51;;;;;;;24.10;10.10;;;;;;;18.27;72.07;98849.03;79465;1298;3011946;-62
2023/07/11 04:45:19;;;;;;;15.70;9.60;;;;;;;17.95;72.83;98849.84;78546;1295;3029263;-68
2023/07/11 04:47:46;;;;;;;20.50;9.10;;;;;;;17.81;73.29;98845.90;79436;1295;3013162;-64
2023/07/11 04:50:13;;;;;;;16.70;11.30;;;;;;;17.67;74.15;98846.78;79427;1295;3013181;-64
2023/07/11 04:52:43;;;;;;;22.30;13.20;;;;;;;17.52;75.01;98841.31;78260;1296;3067720;-65
2023/07/11 04:55:09;;;;;;;18.50;11.10;;;;;;;17.43;75.12;98840.48;79467;1295;3012851;-70
2023/07/11 04:57:36;;;;;;;16.90;10.00;;;;;;;17.45;75.73;98845.69;79637;1295;3011488;-67
2023/07/11 05:00:05;;;;;;;18.30;9.90;;;;;;;18.23;73.21;98833.19;78479;1298;3052831;-66
2023/07/11 05:02:34;;;;;;;13.80;7.00;;;;;;;18.71;70.35;98831.98;79708;1295;3013574;-63
2023/07/11 05:05:03;;;;;;;20.60;9.20;;;;;;;18.63;69.83;98835.48;79400;1298;3012098;-62
2023/07/11 05:07:29;;;;;;;10.60;6.00;;;;;;;18.46;70.56;98840.04;79684;1295;3018948;-62
2023/07/11 05:09:56;;;;;;;16.10;7.40;;;;;;;18.39;70.84;98837.96;80042;1295;3012681;-62
2023/07/11 05:12:24;;;;;;;17.30;7.90;;;;;;;18.29;70.97;98840.94;78405;1298;3028350;-61
2023/07/11 05:14:50;;;;;;;17.60;9.10;;;;;;;18.19;71.41;98843.32;79467;1295;3011911;-59
2023/07/11 05:17:17;;;;;;;12.50;6.90;;;;;;;17.89;72.22;98847.18;79729;1295;3011537;-60
2023/07/11 05:19:45;;;;;;;9.50;5.80;;;;;;;17.86;72.69;98842.23;78238;1298;3028924;-62
2023/07/11 05:22:12;;;;;;;8.60;3.90;;;;;;;17.87;72.82;98841.41;79459;1295;3013554;-61
2023/07/11 05:24:39;;;;;;;4.80;3.70;;;;;;;18.37;71.44;98843.73;79630;1295;3012117;-63
2023/07/11 05:27:07;;;;;;;6.50;4.40;;;;;;;18.75;69.55;98844.83;78587;1298;3056612;-61
2023/07/11 05:29:35;;;;;;;7.60;5.30;;;;;;;18.80;69.10;98850.71;79501;1295;3013501;-62
2023/07/11 05:32:02;;;;;;;13.30;8.20;;;;;;;18.47;69.79;98852.63;79411;1296;3012202;-64
2023/07/11 05:34:31;;;;;;;14.70;9.00;;;;;;;18.28;70.86;98853.73;78667;1298;3052947;-61
2023/07/11 05:36:57;;;;;;;11.30;6.90;;;;;;;18.07;72.13;98848.95;79556;1295;3020741;-65
2023/07/11 05:39:24;;;;;;;7.00;5.30;;;;;;;18.02;72.32;98843.08;79541;1298;3013106;-62
2023/07/11 05:41:52;;;;;;;11.60;5.40;;;;;;;17.94;72.08;98843.52;78254;1299;3026045;-62
2023/07/11 05:44:18;;;;;;;11.70;5.50;;;;;;;17.93;72.78;98842.93;79649;1295;3016195;-66
2023/07/11 05:46:46;;;;;;;4.70;3.30;;;;;;;18.07;71.95;98841.21;79375;1295;3011867;-64
2023/07/11 05:49:14;;;;;;;5.70;3.80;;;;;;;18.78;69.77;98840.42;78355;1298;3052638;-63
2023/07/11 05:51:40;;;;;;;8.90;4.30;;;;;;;19.11;68.17;98839.61;79472;1299;3014903;-64
2023/07/11 05:54:07;;;;;;;9.10;5.50;;;;;;;19.38;67.47;98838.91;79513;1295;3011839;-62
2023/07/11 05:56:35;;;;;;;7.00;4.80;;;;;;;19.42;66.76;98841.35;78230;1300;3057304;-62
2023/07/11 05:59:01;;;;;;;8.00;5.70;;;;;;;19.41;67.14;98837.92;79544;1295;3020774;-62
2023/07/11 06:01:29;;;;;;;11.80;5.60;;;;;;;19.38;67.34;98838.61;79555;1296;3011839;-64
2023/07/11 06:04:05;;;;;;;11.90;7.10;;;;;;;19.18;67.22;98842.64;78349;1298;3026738;-63
2023/07/11 06:06:35;;;;;;;15.90;8.40;;;;;;;18.99;68.63;98843.44;78339;1298;3053331;-61
2023/07/11 06:09:04;;;;;;;10.70;6.10;;;;;;;19.00;68.44;98844.01;81963;1294;3011170;-62
2023/07/11 06:11:32;;;;;;;12.80;8.40;;;;;;;18.90;67.83;98845.95;80723;1295;3050112;-64
2023/07/11 06:14:01;;;;;;;19.50;9.30;;;;;;;18.98;68.06;98845.70;81995;1294;3011396;-62
2023/07/11 06:16:28;;;;;;;15.20;8.10;;;;;;;19.04;68.05;98842.85;82035;1296;3011655;-62
2023/07/11 06:18:56;;;;;;;12.70;6.90;;;;;;;19.16;67.86;98844.27;80746;1295;3050363;-62
2023/07/11 06:21:22;;;;;;;6.60;4.80;;;;;;;19.18;67.56;98848.52;82046;1295;3018665;-62
2023/07/11 06:23:50;;;;;;;9.20;5.80;;;;;;;18.99;66.78;98852.45;80240;1296;3011653;-64
2023/07/11 06:26:18;;;;;;;7.50;5.10;;;;;;;18.89;66.98;98857.06;78350;1298;3052207;-64
2023/07/11 06:28:44;;;;;;;9.60;6.20;;;;;;;18.84;67.74;98855.58;79451;1295;3018406;-62
2023/07/11 06:31:11;;;;;;;12.80;6.70;;;;;;;18.91;68.24;98853.30;79370;1298;3013006;-63
2023/07/11 06:33:39;;;;;;;10.80;7.00;;;;;;;18.94;68.56;98860.33;78235;1298;3027575;-62
2023/07/11 06:36:06;;;;;;;11.50;6.30;;;;;;;18.87;67.90;98857.22;79473;1297;3012971;-65
2023/07/11 06:38:33;;;;;;;16.30;9.10;;;;;;;18.79;69.12;98853.14;79431;1297;3013518;-63
2023/07/11 06:41:01;;;;;;;7.50;4.80;;;;;;;18.98;68.78;98851.19;78382;1295;3050966;-64
2023/07/11 06:43:28;;;;;;;8.10;4.60;;;;;;;19.57;67.08;98852.88;79496;1298;3012914;-64
2023/07/11 06:45:56;;;;;;;9.10;4.80;;;;;;;20.06;64.97;98854.91;79574;1296;3012126;-63
2023/07/11 06:48:26;;;;;;;6.40;4.10;;;;;;;20.16;63.76;98857.02;78464;1299;3050362;-62
2023/07/11 06:50:54;;;;;;;8.20;4.10;;;;;;;20.08;63.22;98857.55;79697;1295;3011772;-65
2023/07/11 06:53:26;;;;;;;5.50;4.20;;;;;;;19.95;63.38;98861.29;79149;1294;3011499;-65
2023/07/11 06:55:52;;;;;;;7.60;4.70;;;;;;;19.96;63.61;98859.23;79637;1295;3013022;-66
2023/07/11 06:58:21;;;;;;;7.60;4.60;;;;;;;19.91;63.48;98859.94;79330;1295;3011663;-61
2023/07/11 07:01:14;;;;;;;10.60;4.40;;;;;;;19.97;63.66;98858.76;79475;1296;3013391;-62
2023/07/11 07:03:42;;;;;;;9.40;5.30;;;;;;;20.11;63.35;98859.82;78243;1296;3053601;-63
2023/07/11 07:06:10;;;;;;;7.70;4.10;;;;;;;20.27;62.35;98861.66;79706;1298;3012851;-64
2023/07/11 07:08:41;;;;;;;4.90;3.80;;;;;;;20.17;61.55;98864.52;78317;1298;3053086;-64
2023/07/11 07:11:07;;;;;;;8.70;3.60;;;;;;;20.08;61.18;98862.14;79396;1300;3013732;-63
2023/07/11 07:13:34;;;;;;;5.30;3.20;;;;;;;20.24;61.28;98853.98;79462;1295;3011821;-63
2023/07/11 07:16:02;;;;;;;8.40;3.90;;;;;;;20.50;60.92;98854.30;78091;1300;3028438;-64
2023/07/11 07:18:32;;;;;;;7.80;4.00;;;;;;;20.62;60.27;98861.46;79603;1296;3013621;-63
2023/07/11 07:21:02;;;;;;;6.00;2.80;;;;;;;20.72;59.54;98863.81;79122;1295;3013524;-62
2023/07/11 07:23:29;;;;;;;6.90;3.50;;;;;;;20.58;58.82;98869.45;79611;1298;3011972;-63
2023/07/11 07:25:58;;;;;;;6.50;3.50;;;;;;;20.63;58.69;98861.06;79748;1296;3011283;-65
2023/07/11 07:28:27;;;;;;;8.10;3.00;;;;;;;20.69;59.19;98857.21;78448;1298;3051692;-68
2023/07/11 07:30:54;;;;;;;8.80;3.10;;;;;;;20.79;59.02;98858.16;79778;1295;3013109;-62
2023/07/11 07:33:24;;;;;;;8.60;3.80;;;;;;;20.89;58.47;98852.27;79659;1295;3011623;-67
2023/07/11 07:35:57;;;;;;;7.00;3.50;;;;;;;20.69;58.97;98863.75;78706;1298;3049410;-66
2023/07/11 07:38:27;;;;;;;8.30;4.10;;;;;;;20.73;59.24;98860.08;79332;1295;3013263;-63
2023/07/11 07:40:57;;;;;;;8.90;3.30;;;;;;;20.74;58.98;98859.97;80324;1299;3054131;-62
2023/07/11 07:43:24;;;;;;;6.10;3.20;;;;;;;20.98;56.87;98859.92;81877;1295;3011740;-63
2023/07/11 07:45:52;;;;;;;2.80;2.40;;;;;;;20.97;56.98;98861.33;81790;1294;3011387;-63
2023/07/11 07:48:20;;;;;;;3.60;2.40;;;;;;;21.20;56.39;98855.73;79870;1295;3047775;-64
2023/07/11 07:50:48;;;;;;;4.90;3.00;;;;;;;21.34;55.54;98860.91;80461;1295;3012743;-63
2023/07/11 07:53:15;;;;;;;6.70;2.50;;;;;;;21.51;55.40;98854.31;80638;1295;3011584;-63
2023/07/11 07:55:43;;;;;;;4.30;2.60;;;;;;;21.43;55.09;98859.69;78176;1301;3053273;-62
2023/07/11 07:58:10;;;;;;;3.80;3.00;;;;;;;21.37;55.71;98858.73;79382;1295;3020542;-62
2023/07/11 08:00:37;;;;;;;5.20;3.20;;;;;;;21.43;56.34;98858.25;79292;1295;3011565;-63
2023/07/11 08:03:05;;;;;;;4.10;3.00;;;;;;;21.37;56.60;98862.46;78174;1295;3049940;-62
2023/07/11 08:05:35;;;;;;;5.50;2.70;;;;;;;21.44;56.12;98858.08;79343;1295;3013640;-63
2023/07/11 08:08:04;;;;;;;3.50;2.70;;;;;;;21.71;55.77;98855.52;78966;1298;3011908;-63
2023/07/11 08:10:33;;;;;;;8.90;3.00;;;;;;;21.77;55.58;98853.20;79581;1295;3011555;-63
2023/07/11 08:13:02;;;;;;;4.30;2.80;;;;;;;21.92;55.36;98850.05;78921;1298;3013579;-63
2023/07/11 08:15:29;;;;;;;6.30;2.80;;;;;;;22.07;54.99;98847.98;79539;1295;3013306;-62
2023/07/11 08:17:55;;;;;;;6.30;2.90;;;;;;;22.07;54.97;98849.02;79252;1299;3011587;-63
2023/07/11 08:20:23;;;;;;;6.40;2.80;;;;;;;22.20;54.75;98852.62;78162;1300;3029448;-63
2023/07/11 08:22:50;;;;;;;4.20;2.90;;;;;;;22.08;54.93;98858.48;79407;1295;3012959;-63
2023/07/11 08:25:17;;;;;;;8.40;3.40;;;;;;;21.92;55.14;98851.83;79403;1300;3012996;-63
2023/07/11 08:27:44;;;;;;;4.20;3.00;;;;;;;22.04;54.54;98856.98;78315;1300;3029670;-65
2023/07/11 08:30:11;;;;;;;4.00;2.90;;;;;;;22.19;54.28;98850.39;79484;1296;3013199;-63
2023/07/11 08:32:39;;;;;;;3.60;2.60;;;;;;;22.36;53.73;98855.77;79431;1295;3013790;-63
2023/07/11 08:35:08;;;;;;;3.40;2.80;;;;;;;22.43;53.66;98853.80;78362;1295;3049221;-63
2023/07/11 08:37:34;;;;;;;9.30;2.70;;;;;;;22.50;53.17;98854.77;79471;1295;3012342;-64
2023/07/11 08:40:01;;;;;;;8.60;2.90;;;;;;;22.29;53.12;98858.56;79568;1298;3012878;-64
2023/07/11 08:42:33;;;;;;;5.60;2.80;;;;;;;22.19;53.19;98860.72;78272;1300;3029893;-62
2023/07/11 08:45:26;;;;;;;3.10;2.60;;;;;;;22.21;52.95;98849.36;79480;1295;3013714;-62
2023/07/11 08:47:54;;;;;;;3.40;2.40;;;;;;;22.20;52.39;98848.15;78193;1298;3051926;-63
2023/07/11 08:50:24;;;;;;;6.20;3.50;;;;;;;22.30;52.70;98853.97;79425;1298;3013016;-65
2023/07/11 08:53:00;;;;;;;5.60;3.30;;;;;;;22.31;53.04;98846.11;78865;1295;3013041;-62
2023/07/11 08:55:30;;;;;;;5.70;3.70;;;;;;;22.45;53.08;98845.99;78164;1301;3053912;-64
2023/07/11 08:58:17;;;;;;;4.40;2.80;;;;;;;22.42;52.62;98848.59;79347;1298;3012852;-63
2023/07/11 09:00:46;;;;;;;5.10;2.40;;;;;;;22.44;52.09;98842.98;78200;1300;3053580;-62
2023/07/11 09:03:27;;;;;;;4.90;2.20;;;;;;;22.41;50.66;98839.31;79381;1300;3013518;-62
2023/07/11 09:05:57;;;;;;;7.80;2.30;;;;;;;22.40;50.29;98842.84;78132;1294;3051800;-63
2023/07/11 09:08:24;;;;;;;2.50;2.20;;;;;;;22.44;50.26;98846.75;79432;1301;3012808;-63
2023/07/11 09:11:06;;;;;;;4.60;2.00;;;;;;;22.32;50.34;98848.69;78105;1300;3049414;-63
2023/07/11 09:14:03;;;;;;;2.60;2.40;;;;;;;22.48;50.31;98848.77;78730;1301;3053029;-66
2023/07/11 09:16:50;;;;;;;7.80;3.00;;;;;;;22.50;50.55;98846.77;78290;1298;3050682;-64
2023/07/11 09:19:44;;;;;;;3.40;2.60;;;;;;;22.73;50.54;98839.06;78613;1296;3052570;-62
2023/07/11 09:22:35;;;;;;;3.80;2.70;;;;;;;22.89;50.29;98850.23;80751;1295;3052828;-63
2023/07/11 09:25:16;;;;;;;4.70;2.70;;;;;;;22.57;49.53;98847.06;80774;1295;3068664;-64
2023/07/11 09:27:48;;;;;;;4.20;2.00;;;;;;;22.58;49.54;98848.15;80530;1295;3052382;-60
2023/07/11 09:30:35;;;;;;;7.00;2.70;;;;;;;22.43;49.39;98845.27;79368;1295;3011763;-63
2023/07/11 09:33:11;;;;;;;4.90;2.70;;;;;;;22.22;50.84;98842.56;78341;1295;3048254;-64
2023/07/11 09:35:40;;;;;;;3.70;2.70;;;;;;;22.63;50.64;98837.70;78234;1298;3053329;-62
2023/07/11 09:38:13;;;;;;;6.00;2.50;;;;;;;22.91;49.77;98836.98;79416;1301;3013803;-62
2023/07/11 09:40:51;;;;;;;6.20;3.30;;;;;;;22.97;48.83;98838.23;78638;1295;3052290;-61
2023/07/11 09:43:18;;;;;;;4.90;2.80;;;;;;;22.86;49.15;98833.63;78420;1298;3070263;-65
2023/07/11 09:45:45;;;;;;;6.90;3.30;;;;;;;23.12;48.77;98832.45;79819;1295;3013087;-65
2023/07/11 09:48:13;;;;;;;6.30;3.80;;;;;;;23.44;47.96;98835.17;79676;1295;3011492;-65
2023/07/11 09:50:59;;;;;;;9.10;3.30;;;;;;;23.47;48.47;98836.79;78333;1298;3051975;-63
2023/07/11 09:53:29;;;;;;;3.20;2.00;;;;;;;22.87;50.30;98833.06;78828;1295;3049950;-62
2023/07/11 09:55:59;;;;;;;4.40;2.10;;;;;;;22.50;50.26;98837.51;82064;1294;3013400;-62
2023/07/11 09:58:29;;;;;;;4.20;2.10;;;;;;;22.33;50.23;98838.65;80314;1295;3068601;-64
2023/07/11 10:00:59;;;;;;;2.30;1.80;;;;;;;22.33;50.63;98845.58;81954;1293;3011409;-62
2023/07/11 10:03:28;;;;;;;3.40;2.00;;;;;;;22.22;51.21;98848.85;78313;1295;3058250;-64
2023/07/11 10:05:55;;;;;;;3.00;1.90;;;;;;;22.15;51.22;98855.09;79573;1294;3013046;-68
2023/07/11 10:08:35;;;;;;;6.60;2.20;;;;;;;22.29;50.88;98849.98;79127;1295;3011614;-63
2023/07/11 10:11:05;;;;;;;4.70;2.10;;;;;;;22.55;50.89;98852.73;78415;1298;3050472;-74
2023/07/11 10:13:33;;;;;;;3.40;2.20;;;;;;;22.96;51.13;98843.34;79449;1295;3011858;-66
2023/07/11 10:16:02;;;;;;;5.40;2.30;;;;;;;22.95;52.14;98848.08;78835;1295;3011714;-63
2023/07/11 10:18:30;;;;;;;11.60;2.90;;;;;;;22.73;52.09;98854.89;79329;1299;3012863;-63
2023/07/11 10:20:59;;;;;;;2.90;2.30;;;;;;;22.73;51.81;98849.41;79478;1295;3012466;-68
2023/07/11 10:23:27;;;;;;;4.00;2.30;;;;;;;22.66;51.30;98850.73;78260;1301;3049761;-67
2023/07/11 10:26:10;;;;;;;4.30;2.10;;;;;;;22.69;51.39;98848.21;79418;1298;3019246;-65
2023/07/11 10:28:42;;;;;;;2.60;2.00;;;;;;;22.94;50.70;98843.57;78159;1301;3052522;-67
2023/07/11 10:31:10;;;;;;;4.30;2.40;;;;;;;23.17;50.74;98841.18;79730;1298;3013493;-65
2023/07/11 10:34:05;;;;;;;7.10;3.10;;;;;;;23.55;51.45;98848.47;78243;1294;3066347;-65
2023/07/11 10:36:40;;;;;;;6.40;3.60;;;;;;;23.77;52.82;98843.01;78206;1298;3053170;-63
2023/07/11 10:39:18;;;;;;;6.70;2.90;;;;;;;23.78;51.33;98837.37;79106;1296;3012852;-62
2023/07/11 10:42:14;;;;;;;4.50;3.10;;;;;;;23.92;51.67;98839.71;78238;1295;3055497;-66
2023/07/11 10:44:46;;;;;;;5.30;2.50;;;;;;;24.20;50.55;98836.73;78387;1298;3050004;-64
2023/07/11 10:47:13;;;;;;;11.60;2.70;;;;;;;24.29;48.93;98840.93;79553;1295;3013847;-71
2023/07/11 10:49:44;;;;;;;2.90;2.40;;;;;;;24.34;47.37;98841.77;78395;1295;3048434;-59
2023/07/11 10:52:10;;;;;;;6.70;3.10;;;;;;;24.43;46.85;98838.95;79401;1295;3013461;-60
2023/07/11 10:54:45;;;;;;;2.50;2.10;;;;;;;24.52;47.34;98835.64;78945;1296;3011976;-63
2023/07/11 10:57:36;;;;;;;6.30;2.70;;;;;;;24.78;46.54;98833.39;79587;1298;3011886;-61
2023/07/11 11:00:09;;;;;;;3.60;2.10;;;;;;;24.65;46.40;98838.33;78328;1298;3052767;-62
2023/07/11 11:02:58;;;;;;;4.60;2.50;;;;;;;24.98;46.12;98827.63;79452;1295;3011697;-61
2023/07/11 11:05:42;;;;;;;6.10;2.50;;;;;;;25.20;46.11;98827.13;78282;1295;3048390;-60
2023/07/11 11:08:15;;;;;;;10.60;2.10;;;;;;;25.21;45.87;98828.19;78294;1298;3054769;-63
2023/07/11 11:10:57;;;;;;;3.40;1.80;;;;;;;24.89;45.23;98830.33;79410;1295;3011759;-60
2023/07/11 11:13:38;;;;;;;5.40;2.30;;;;;;;24.66;45.48;98830.15;78296;1295;3052628;-59
2023/07/11 11:16:29;;;;;;;5.20;2.00;;;;;;;24.39;45.24;98830.16;78309;1295;3052965;-61
2023/07/11 11:19:19;;;;;;;5.80;2.20;;;;;;;24.00;46.23;98827.85;78263;1295;3069915;-62
2023/07/11 11:21:59;;;;;;;5.40;1.80;;;;;;;23.68;46.69;98839.39;78369;1294;3050880;-61
2023/07/11 11:24:30;;;;;;;3.80;3.00;;;;;;;23.80;45.15;98839.19;78288;1294;3056376;-60
2023/07/11 11:27:00;;;;;;;3.30;2.50;;;;;;;24.18;43.87;98836.30;79304;1295;3011781;-60
2023/07/11 11:29:40;;;;;;;4.50;1.70;;;;;;;24.23;44.48;98843.70;78184;1294;3051531;-59
2023/07/11 11:32:33;;;;;;;3.60;1.70;;;;;;;24.51;44.10;98835.22;78055;1298;3050582;-62
2023/07/11 11:35:01;;;;;;;;;;;;;;;24.78;43.71;98834.02;78121;1298;3053316;-62
2023/07/11 11:38:00;;;;;;;1.80;1.40;;;;;;;24.71;43.03;98838.84;79368;1298;3012999;-62
2023/07/11 11:40:28;;;;;;;4.20;1.50;;;;;;;24.45;42.22;98843.86;78231;1298;3052051;-62
2023/07/11 11:42:58;;;;;;;1.30;1.20;;;;;;;24.20;42.57;98857.54;79236;1295;3012696;-61
2023/07/11 11:45:27;;;;;;;2.40;1.70;;;;;;;23.84;43.39;98852.15;78132;1298;3053023;-64
2023/07/11 11:47:55;;;;;;;3.60;1.70;;;;;;;23.74;43.74;98846.31;79368;1301;3014653;-62
2023/07/11 11:50:23;;;;;;;3.20;1.80;;;;;;;23.80;44.05;98849.84;79351;1295;3011874;-62
2023/07/11 11:52:56;;;;;;;1.50;1.10;;;;;;;23.76;43.98;98849.89;78118;1298;3068065;-62
2023/07/11 11:55:36;;;;;;;3.00;2.00;;;;;;;23.63;44.02;98844.95;79470;1298;3013013;-61
2023/07/11 11:58:04;;;;;;;2.80;1.70;;;;;;;23.89;43.66;98839.33;78207;1298;3056423;-60
2023/07/11 12:00:38;;;;;;;6.50;1.90;;;;;;;23.93;43.62;98846.75;79354;1294;3014482;-60
2023/07/11 12:03:22;;;;;;;5.10;1.50;;;;;;;24.08;43.25;98846.23;78381;1298;3050031;-61
2023/07/11 12:05:51;;;;;;;4.10;1.60;;;;;;;24.21;42.49;98841.41;78342;1299;3053118;-63
2023/07/11 12:08:28;;;;;;;1.70;1.40;;;;;;;24.31;41.80;98840.39;79601;1295;3013080;-62
2023/07/11 12:11:06;;;;;;;2.50;1.40;;;;;;;24.26;41.71;98843.46;78211;1298;3052000;-62
2023/07/11 12:13:38;;;;;;;1.30;1.20;;;;;;;24.17;41.86;98845.22;78320;1297;3058107;-62
2023/07/11 12:16:20;;;;;;;6.20;2.00;;;;;;;24.09;42.25;98843.10;79378;1295;3011553;-58
2023/07/11 12:18:52;;;;;;;6.10;2.00;;;;;;;24.30;42.29;98840.14;78184;1298;3055281;-62
2023/07/11 12:21:39;;;;;;;7.00;2.20;;;;;;;24.64;41.80;98831.83;79452;1295;3013570;-62
2023/07/11 12:24:22;;;;;;;3.90;1.90;;;;;;;25.23;40.41;98824.54;78317;1298;3053026;-63
2023/07/11 12:26:53;;;;;;;3.30;1.90;;;;;;;25.30;39.48;98816.59;78081;1301;3052842;-61
2023/07/11 12:29:50;;;;;;;3.80;1.60;;;;;;;25.23;40.07;98820.56;79453;1299;3011654;-63
2023/07/11 12:32:50;;;;;;;3.30;1.20;;;;;;;24.80;40.78;98831.19;78143;1301;3051005;-61
2023/07/11 12:35:26;;;;;;;3.30;1.20;;;;;;;24.32;41.98;98831.69;78285;1295;3056723;-63
2023/07/11 12:38:00;;;;;;;5.40;1.30;;;;;;;24.36;41.64;98834.23;78973;1305;3011927;-61
2023/07/11 12:40:36;;;;;;;3.50;1.30;;;;;;;24.30;41.74;98841.51;79351;1296;3011877;-62
2023/07/11 12:43:27;;;;;;;2.50;1.50;;;;;;;24.19;41.91;98845.40;78007;1301;3053389;-62
2023/07/11 12:46:15;;;;;;;4.40;1.90;;;;;;;24.36;41.59;98844.02;78259;1300;3051371;-60
2023/07/11 12:48:45;;;;;;;5.80;2.70;;;;;;;24.87;40.47;98844.86;78290;1301;3054807;-61
2023/07/11 12:51:37;;;;;;;2.20;1.90;;;;;;;25.10;39.88;98836.38;79701;1301;3013233;-60
2023/07/11 12:54:05;;;;;;;4.70;1.90;;;;;;;25.04;40.12;98840.08;78240;1295;3070792;-62
2023/07/11 12:56:31;;;;;;;2.10;1.20;;;;;;;24.77;40.68;98844.62;79286;1295;3012743;-60
2023/07/11 12:58:58;;;;;;;3.80;1.40;;;;;;;24.51;41.29;98849.64;79403;1301;3012159;-60
2023/07/11 13:01:28;;;;;;;2.00;1.50;;;;;;;24.27;41.70;98842.15;78288;1299;3051376;-61
2023/07/11 13:03:55;;;;;;;4.30;1.80;;;;;;;24.37;42.11;98842.21;79497;1297;3013613;-61
2023/07/11 13:06:26;;;;;;;4.70;1.50;;;;;;;24.46;42.31;98850.73;79468;1297;3011784;-63
2023/07/11 13:08:55;;;;;;;4.60;1.60;;;;;;;24.32;42.86;98848.79;78352;1301;3069521;-63
2023/07/11 13:11:25;;;;;;;2.60;1.80;;;;;;;24.43;43.05;98844.42;79357;1295;3013544;-62
2023/07/11 13:13:55;;;;;;;2.90;2.00;;;;;;;24.36;42.98;98844.52;79069;1300;3013461;-60
2023/07/11 13:16:23;;;;;;;4.90;2.00;;;;;;;24.38;43.31;98846.80;79368;1295;3011713;-61
2023/07/11 13:18:50;;;;;;;13.70;2.30;;;;;;;23.80;48.43;98871.65;79277;1299;3013134;-64
2023/07/11 13:21:19;;;;;;;8.90;2.00;;;;;;;22.53;56.36;98891.19;78137;1301;3052592;-66
2023/07/11 13:23:47;;;;;;;6.00;2.20;;;;;;;19.77;78.92;98934.77;79259;1298;3018924;-66
2023/07/11 13:26:22;;;;;;;6.40;2.60;;;;;;;18.62;81.86;98917.94;79751;1300;3011464;-63
2023/07/11 13:29:10;;;;;;;8.20;1.90;;;;;;;18.47;83.36;98890.09;78287;1295;3056964;-65
2023/07/11 13:31:38;;;;;;;6.20;2.10;;;;;;;18.78;83.61;98903.58;77610;1295;3049420;-67
2023/07/11 13:34:16;;;;;;;6.80;2.10;;;;;;;-40.07;48.27;59352.63;78274;1299;3018655;-68
2023/07/11 13:36:48;;;;;;;3.40;1.70;;;;;;;18.35;81.54;98929.05;78319;1300;3052809;-70
2023/07/11 13:39:20;;;;;;;6.90;1.90;;;;;;;19.08;82.29;98928.50;78877;1301;3013305;-66
2023/07/11 13:41:54;;;;;;;3.30;1.70;;;;;;;19.79;81.48;98919.41;77530;1301;3069097;-68